sensor_id;sensor_type;location;lat;lon;timestamp;temperature;humidity
7900;DHT22;3995;50.856;4.404;2023-06-24T00:00:08;25.90;48.20
7900;DHT22;3995;50.856;4.404;2023-06-24T00:02:37;25.90;48.40
7900;DHT22;3995;50.856;4.404;2023-06-24T00:05:09;25.90;47.80
7900;DHT22;3995;50.856;4.404;2023-06-24T00:07:37;25.80;47.60
7900;DHT22;3995;50.856;4.404;2023-06-24T00:10:12;25.80;47.40
7900;DHT22;3995;50.856;4.404;2023-06-24T00:12:40;25.80;47.30
7900;DHT22;3995;50.856;4.404;2023-06-24T00:15:08;25.80;47.10
7900;DHT22;3995;50.856;4.404;2023-06-24T00:17:36;25.80;46.80
7900;DHT22;3995;50.856;4.404;2023-06-24T00:20:04;25.70;46.80
7900;DHT22;3995;50.856;4.404;2023-06-24T00:22:34;25.70;46.70
7900;DHT22;3995;50.856;4.404;2023-06-24T00:25:01;25.70;46.50
7900;DHT22;3995;50.856;4.404;2023-06-24T00:27:32;25.70;46.40
7900;DHT22;3995;50.856;4.404;2023-06-24T00:29:59;25.70;46.20
7900;DHT22;3995;50.856;4.404;2023-06-24T00:32:27;25.70;46.10
7900;DHT22;3995;50.856;4.404;2023-06-24T00:34:54;25.70;45.90
7900;DHT22;3995;50.856;4.404;2023-06-24T00:37:23;25.70;45.80
7900;DHT22;3995;50.856;4.404;2023-06-24T00:39:52;25.70;45.80
7900;DHT22;3995;50.856;4.404;2023-06-24T00:42:19;25.70;46.00
7900;DHT22;3995;50.856;4.404;2023-06-24T00:44:49;25.60;45.60
7900;DHT22;3995;50.856;4.404;2023-06-24T00:47:17;25.60;45.70
7900;DHT22;3995;50.856;4.404;2023-06-24T00:49:44;25.60;45.80
7900;DHT22;3995;50.856;4.404;2023-06-24T00:52:12;25.60;45.80
7900;DHT22;3995;50.856;4.404;2023-06-24T00:54:41;25.60;45.80
7900;DHT22;3995;50.856;4.404;2023-06-24T00:57:09;25.50;45.70
7900;DHT22;3995;50.856;4.404;2023-06-24T00:59:37;25.60;45.80
7900;DHT22;3995;50.856;4.404;2023-06-24T01:02:06;25.50;45.80
7900;DHT22;3995;50.856;4.404;2023-06-24T01:04:34;25.50;45.80
7900;DHT22;3995;50.856;4.404;2023-06-24T01:07:01;25.50;45.90
7900;DHT22;3995;50.856;4.404;2023-06-24T01:09:29;25.50;46.00
7900;DHT22;3995;50.856;4.404;2023-06-24T01:11:58;25.50;46.20
7900;DHT22;3995;50.856;4.404;2023-06-24T01:14:26;25.40;46.30
7900;DHT22;3995;50.856;4.404;2023-06-24T01:17:01;25.50;46.40
7900;DHT22;3995;50.856;4.404;2023-06-24T01:19:49;25.50;46.40
7900;DHT22;3995;50.856;4.404;2023-06-24T01:22:37;25.50;46.40
7900;DHT22;3995;50.856;4.404;2023-06-24T01:25:24;25.40;46.70
7900;DHT22;3995;50.856;4.404;2023-06-24T01:28:23;25.40;46.80
7900;DHT22;3995;50.856;4.404;2023-06-24T01:31:39;25.40;47.00
7900;DHT22;3995;50.856;4.404;2023-06-24T01:34:14;25.40;47.10
7900;DHT22;3995;50.856;4.404;2023-06-24T01:37:00;25.40;47.50
7900;DHT22;3995;50.856;4.404;2023-06-24T01:39:34;25.40;47.40
7900;DHT22;3995;50.856;4.404;2023-06-24T01:42:09;25.30;47.60
7900;DHT22;3995;50.856;4.404;2023-06-24T01:47:09;25.30;47.50
7900;DHT22;3995;50.856;4.404;2023-06-24T01:49:41;25.30;47.50
7900;DHT22;3995;50.856;4.404;2023-06-24T01:52:10;25.30;47.50
7900;DHT22;3995;50.856;4.404;2023-06-24T01:54:40;25.30;47.60
7900;DHT22;3995;50.856;4.404;2023-06-24T01:57:09;25.30;47.60
7900;DHT22;3995;50.856;4.404;2023-06-24T01:59:41;25.30;47.70
7900;DHT22;3995;50.856;4.404;2023-06-24T02:02:12;25.30;47.60
7900;DHT22;3995;50.856;4.404;2023-06-24T02:04:40;25.20;47.50
7900;DHT22;3995;50.856;4.404;2023-06-24T02:07:08;25.20;47.70
7900;DHT22;3995;50.856;4.404;2023-06-24T02:09:37;25.20;47.70
7900;DHT22;3995;50.856;4.404;2023-06-24T02:12:07;25.20;47.70
7900;DHT22;3995;50.856;4.404;2023-06-24T02:14:36;25.20;47.70
7900;DHT22;3995;50.856;4.404;2023-06-24T02:17:06;25.20;47.60
7900;DHT22;3995;50.856;4.404;2023-06-24T02:19:37;25.10;47.50
7900;DHT22;3995;50.856;4.404;2023-06-24T02:22:07;25.10;47.80
7900;DHT22;3995;50.856;4.404;2023-06-24T02:24:36;25.10;47.60
7900;DHT22;3995;50.856;4.404;2023-06-24T02:27:05;25.10;47.60
7900;DHT22;3995;50.856;4.404;2023-06-24T02:29:34;25.10;47.70
7900;DHT22;3995;50.856;4.404;2023-06-24T02:32:02;25.10;47.70
7900;DHT22;3995;50.856;4.404;2023-06-24T02:34:29;25.10;47.80
7900;DHT22;3995;50.856;4.404;2023-06-24T02:36:58;25.00;47.80
7900;DHT22;3995;50.856;4.404;2023-06-24T02:39:26;25.00;47.80
7900;DHT22;3995;50.856;4.404;2023-06-24T02:41:53;25.00;47.80
7900;DHT22;3995;50.856;4.404;2023-06-24T02:44:20;25.00;47.90
7900;DHT22;3995;50.856;4.404;2023-06-24T02:46:48;24.90;47.90
7900;DHT22;3995;50.856;4.404;2023-06-24T02:49:16;24.90;47.90
7900;DHT22;3995;50.856;4.404;2023-06-24T02:51:44;24.90;47.90
7900;DHT22;3995;50.856;4.404;2023-06-24T02:54:14;24.90;47.90
7900;DHT22;3995;50.856;4.404;2023-06-24T02:56:42;24.90;47.70
7900;DHT22;3995;50.856;4.404;2023-06-24T02:59:10;24.90;47.60
7900;DHT22;3995;50.856;4.404;2023-06-24T03:01:38;24.80;47.40
7900;DHT22;3995;50.856;4.404;2023-06-24T03:04:10;24.80;47.40
7900;DHT22;3995;50.856;4.404;2023-06-24T03:06:39;24.80;47.20
7900;DHT22;3995;50.856;4.404;2023-06-24T03:09:07;24.80;47.20
7900;DHT22;3995;50.856;4.404;2023-06-24T03:11:42;24.80;47.30
7900;DHT22;3995;50.856;4.404;2023-06-24T03:14:10;24.70;47.20
7900;DHT22;3995;50.856;4.404;2023-06-24T03:16:37;24.70;47.30
7900;DHT22;3995;50.856;4.404;2023-06-24T03:19:05;24.70;47.40
7900;DHT22;3995;50.856;4.404;2023-06-24T03:21:33;24.70;47.50
7900;DHT22;3995;50.856;4.404;2023-06-24T03:24:01;24.70;47.40
7900;DHT22;3995;50.856;4.404;2023-06-24T03:26:34;24.70;47.60
7900;DHT22;3995;50.856;4.404;2023-06-24T03:29:04;24.70;47.60
7900;DHT22;3995;50.856;4.404;2023-06-24T03:31:33;24.70;47.70
7900;DHT22;3995;50.856;4.404;2023-06-24T03:34:01;24.70;47.80
7900;DHT22;3995;50.856;4.404;2023-06-24T03:36:28;24.70;47.80
7900;DHT22;3995;50.856;4.404;2023-06-24T03:38:55;24.60;47.80
7900;DHT22;3995;50.856;4.404;2023-06-24T03:41:23;24.60;47.70
7900;DHT22;3995;50.856;4.404;2023-06-24T03:43:52;24.70;47.80
7900;DHT22;3995;50.856;4.404;2023-06-24T03:46:20;24.60;47.80
7900;DHT22;3995;50.856;4.404;2023-06-24T03:48:50;24.60;47.70
7900;DHT22;3995;50.856;4.404;2023-06-24T03:51:17;24.60;47.70
7900;DHT22;3995;50.856;4.404;2023-06-24T03:53:44;24.60;47.70
7900;DHT22;3995;50.856;4.404;2023-06-24T03:56:12;24.60;47.70
7900;DHT22;3995;50.856;4.404;2023-06-24T03:58:39;24.60;47.70
7900;DHT22;3995;50.856;4.404;2023-06-24T04:01:06;24.60;47.60
7900;DHT22;3995;50.856;4.404;2023-06-24T04:03:36;24.50;47.60
7900;DHT22;3995;50.856;4.404;2023-06-24T04:06:04;24.60;47.60
7900;DHT22;3995;50.856;4.404;2023-06-24T04:08:31;24.60;47.60
7900;DHT22;3995;50.856;4.404;2023-06-24T04:10:58;24.50;47.50
7900;DHT22;3995;50.856;4.404;2023-06-24T04:13:28;24.50;47.60
7900;DHT22;3995;50.856;4.404;2023-06-24T04:15:56;24.50;47.60
7900;DHT22;3995;50.856;4.404;2023-06-24T04:18:24;24.50;47.60
7900;DHT22;3995;50.856;4.404;2023-06-24T04:20:54;24.50;47.60
7900;DHT22;3995;50.856;4.404;2023-06-24T04:23:23;24.50;47.60
7900;DHT22;3995;50.856;4.404;2023-06-24T04:25:51;24.50;47.60
7900;DHT22;3995;50.856;4.404;2023-06-24T04:28:18;24.50;47.50
7900;DHT22;3995;50.856;4.404;2023-06-24T04:30:46;24.40;47.60
7900;DHT22;3995;50.856;4.404;2023-06-24T04:33:13;24.50;47.70
7900;DHT22;3995;50.856;4.404;2023-06-24T04:35:41;24.50;47.60
7900;DHT22;3995;50.856;4.404;2023-06-24T04:38:11;24.50;48.30
7900;DHT22;3995;50.856;4.404;2023-06-24T04:40:43;24.50;47.70
7900;DHT22;3995;50.856;4.404;2023-06-24T04:43:11;24.50;47.70
7900;DHT22;3995;50.856;4.404;2023-06-24T04:45:39;24.40;47.60
7900;DHT22;3995;50.856;4.404;2023-06-24T04:48:07;24.40;47.60
7900;DHT22;3995;50.856;4.404;2023-06-24T04:50:34;24.50;47.70
7900;DHT22;3995;50.856;4.404;2023-06-24T04:53:02;24.40;47.70
7900;DHT22;3995;50.856;4.404;2023-06-24T04:55:32;24.40;47.70
7900;DHT22;3995;50.856;4.404;2023-06-24T04:57:59;24.50;47.70
7900;DHT22;3995;50.856;4.404;2023-06-24T05:00:27;24.40;47.60
7900;DHT22;3995;50.856;4.404;2023-06-24T05:02:55;24.40;47.70
7900;DHT22;3995;50.856;4.404;2023-06-24T05:05:22;24.40;47.60
7900;DHT22;3995;50.856;4.404;2023-06-24T05:07:50;24.40;47.60
7900;DHT22;3995;50.856;4.404;2023-06-24T05:10:18;24.40;47.60
7900;DHT22;3995;50.856;4.404;2023-06-24T05:12:46;24.40;47.50
7900;DHT22;3995;50.856;4.404;2023-06-24T05:15:13;24.40;47.50
7900;DHT22;3995;50.856;4.404;2023-06-24T05:17:41;24.40;47.50
7900;DHT22;3995;50.856;4.404;2023-06-24T05:20:10;24.40;47.40
7900;DHT22;3995;50.856;4.404;2023-06-24T05:22:37;24.40;47.30
7900;DHT22;3995;50.856;4.404;2023-06-24T05:25:05;24.40;47.30
7900;DHT22;3995;50.856;4.404;2023-06-24T05:27:32;24.30;47.30
7900;DHT22;3995;50.856;4.404;2023-06-24T05:30:01;24.40;47.30
7900;DHT22;3995;50.856;4.404;2023-06-24T05:32:28;24.40;47.30
7900;DHT22;3995;50.856;4.404;2023-06-24T05:34:56;24.30;47.20
7900;DHT22;3995;50.856;4.404;2023-06-24T05:37:23;24.30;47.30
7900;DHT22;3995;50.856;4.404;2023-06-24T05:39:51;24.30;47.20
7900;DHT22;3995;50.856;4.404;2023-06-24T05:42:18;24.30;47.30
7900;DHT22;3995;50.856;4.404;2023-06-24T05:44:45;24.30;47.30
7900;DHT22;3995;50.856;4.404;2023-06-24T05:47:15;24.30;47.40
7900;DHT22;3995;50.856;4.404;2023-06-24T05:49:42;24.30;47.40
7900;DHT22;3995;50.856;4.404;2023-06-24T05:52:11;24.30;47.50
7900;DHT22;3995;50.856;4.404;2023-06-24T05:54:39;24.30;47.60
7900;DHT22;3995;50.856;4.404;2023-06-24T05:57:06;24.30;47.70
7900;DHT22;3995;50.856;4.404;2023-06-24T05:59:34;24.30;47.60
7900;DHT22;3995;50.856;4.404;2023-06-24T06:02:02;24.30;47.60
7900;DHT22;3995;50.856;4.404;2023-06-24T06:04:31;24.30;47.70
7900;DHT22;3995;50.856;4.404;2023-06-24T06:06:58;24.30;47.70
7900;DHT22;3995;50.856;4.404;2023-06-24T06:09:25;24.30;47.60
7900;DHT22;3995;50.856;4.404;2023-06-24T06:11:53;24.30;47.80
7900;DHT22;3995;50.856;4.404;2023-06-24T06:14:20;24.30;47.90
7900;DHT22;3995;50.856;4.404;2023-06-24T06:16:47;24.30;48.20
7900;DHT22;3995;50.856;4.404;2023-06-24T06:19:15;24.30;48.20
7900;DHT22;3995;50.856;4.404;2023-06-24T06:21:43;24.30;48.10
7900;DHT22;3995;50.856;4.404;2023-06-24T06:24:10;24.40;48.00
7900;DHT22;3995;50.856;4.404;2023-06-24T06:26:41;24.40;48.00
7900;DHT22;3995;50.856;4.404;2023-06-24T06:29:09;24.40;48.00
7900;DHT22;3995;50.856;4.404;2023-06-24T06:31:37;24.40;48.10
7900;DHT22;3995;50.856;4.404;2023-06-24T06:34:05;24.40;48.10
7900;DHT22;3995;50.856;4.404;2023-06-24T06:36:32;24.40;48.00
7900;DHT22;3995;50.856;4.404;2023-06-24T06:39:01;24.50;48.20
7900;DHT22;3995;50.856;4.404;2023-06-24T06:41:28;24.40;47.70
7900;DHT22;3995;50.856;4.404;2023-06-24T06:43:55;24.40;47.60
7900;DHT22;3995;50.856;4.404;2023-06-24T06:46:23;24.40;47.70
7900;DHT22;3995;50.856;4.404;2023-06-24T06:48:51;24.40;47.80
7900;DHT22;3995;50.856;4.404;2023-06-24T06:51:19;24.50;48.00
7900;DHT22;3995;50.856;4.404;2023-06-24T06:53:46;24.50;47.90
7900;DHT22;3995;50.856;4.404;2023-06-24T06:56:18;24.40;48.00
7900;DHT22;3995;50.856;4.404;2023-06-24T06:58:46;24.50;47.90
7900;DHT22;3995;50.856;4.404;2023-06-24T07:01:14;24.50;47.80
7900;DHT22;3995;50.856;4.404;2023-06-24T07:03:41;24.50;47.70
7900;DHT22;3995;50.856;4.404;2023-06-24T07:06:09;24.50;47.50
7900;DHT22;3995;50.856;4.404;2023-06-24T07:08:55;24.50;47.40
7900;DHT22;3995;50.856;4.404;2023-06-24T07:11:24;24.50;47.40
7900;DHT22;3995;50.856;4.404;2023-06-24T07:13:52;24.50;47.30
7900;DHT22;3995;50.856;4.404;2023-06-24T07:16:19;24.50;47.30
7900;DHT22;3995;50.856;4.404;2023-06-24T07:18:47;24.50;47.30
7900;DHT22;3995;50.856;4.404;2023-06-24T07:21:14;24.50;47.40
7900;DHT22;3995;50.856;4.404;2023-06-24T07:23:41;24.50;47.70
7900;DHT22;3995;50.856;4.404;2023-06-24T07:26:08;24.50;47.90
7900;DHT22;3995;50.856;4.404;2023-06-24T07:28:38;24.50;47.90
7900;DHT22;3995;50.856;4.404;2023-06-24T07:31:06;24.50;47.90
7900;DHT22;3995;50.856;4.404;2023-06-24T07:33:34;24.50;48.00
7900;DHT22;3995;50.856;4.404;2023-06-24T07:36:01;24.50;48.10
7900;DHT22;3995;50.856;4.404;2023-06-24T07:38:29;24.50;48.20
7900;DHT22;3995;50.856;4.404;2023-06-24T07:40:56;24.60;47.90
7900;DHT22;3995;50.856;4.404;2023-06-24T07:43:23;24.60;48.10
7900;DHT22;3995;50.856;4.404;2023-06-24T07:45:53;24.50;48.20
7900;DHT22;3995;50.856;4.404;2023-06-24T07:48:21;24.60;48.40
7900;DHT22;3995;50.856;4.404;2023-06-24T07:50:49;24.60;48.50
7900;DHT22;3995;50.856;4.404;2023-06-24T07:53:16;24.60;48.40
7900;DHT22;3995;50.856;4.404;2023-06-24T07:55:44;24.60;48.40
7900;DHT22;3995;50.856;4.404;2023-06-24T07:58:11;24.60;48.60
7900;DHT22;3995;50.856;4.404;2023-06-24T08:00:39;24.60;48.70
7900;DHT22;3995;50.856;4.404;2023-06-24T08:03:08;24.60;48.70
7900;DHT22;3995;50.856;4.404;2023-06-24T08:05:35;24.70;48.90
7900;DHT22;3995;50.856;4.404;2023-06-24T08:08:04;24.70;49.10
7900;DHT22;3995;50.856;4.404;2023-06-24T08:10:32;24.70;48.90
7900;DHT22;3995;50.856;4.404;2023-06-24T08:12:59;24.70;48.90
7900;DHT22;3995;50.856;4.404;2023-06-24T08:15:26;24.70;48.50
7900;DHT22;3995;50.856;4.404;2023-06-24T08:17:54;24.70;48.50
7900;DHT22;3995;50.856;4.404;2023-06-24T08:20:23;24.70;48.10
7900;DHT22;3995;50.856;4.404;2023-06-24T08:22:50;24.70;47.60
7900;DHT22;3995;50.856;4.404;2023-06-24T08:25:18;24.70;47.30
7900;DHT22;3995;50.856;4.404;2023-06-24T08:27:45;24.70;47.10
7900;DHT22;3995;50.856;4.404;2023-06-24T08:30:13;24.70;46.70
7900;DHT22;3995;50.856;4.404;2023-06-24T08:32:41;24.80;47.10
7900;DHT22;3995;50.856;4.404;2023-06-24T08:35:09;24.80;46.90
7900;DHT22;3995;50.856;4.404;2023-06-24T08:37:39;24.80;47.10
7900;DHT22;3995;50.856;4.404;2023-06-24T08:40:07;24.80;46.40
7900;DHT22;3995;50.856;4.404;2023-06-24T08:42:34;24.80;46.30
7900;DHT22;3995;50.856;4.404;2023-06-24T08:45:02;24.80;45.70
7900;DHT22;3995;50.856;4.404;2023-06-24T08:47:30;24.80;44.90
7900;DHT22;3995;50.856;4.404;2023-06-24T08:50:07;24.80;45.00
7900;DHT22;3995;50.856;4.404;2023-06-24T08:52:38;24.90;44.80
7900;DHT22;3995;50.856;4.404;2023-06-24T08:55:10;24.80;44.50
7900;DHT22;3995;50.856;4.404;2023-06-24T08:57:40;24.90;44.40
7900;DHT22;3995;50.856;4.404;2023-06-24T09:00:08;24.80;44.50
7900;DHT22;3995;50.856;4.404;2023-06-24T09:02:36;24.90;43.80
7900;DHT22;3995;50.856;4.404;2023-06-24T09:05:05;24.90;43.90
7900;DHT22;3995;50.856;4.404;2023-06-24T09:07:32;24.90;44.20
7900;DHT22;3995;50.856;4.404;2023-06-24T09:10:02;24.90;44.40
7900;DHT22;3995;50.856;4.404;2023-06-24T09:12:32;24.90;44.60
7900;DHT22;3995;50.856;4.404;2023-06-24T09:14:59;24.90;44.80
7900;DHT22;3995;50.856;4.404;2023-06-24T09:17:30;24.90;44.90
7900;DHT22;3995;50.856;4.404;2023-06-24T09:20:03;24.90;44.70
7900;DHT22;3995;50.856;4.404;2023-06-24T09:22:31;25.00;43.20
7900;DHT22;3995;50.856;4.404;2023-06-24T09:25:02;25.00;43.50
7900;DHT22;3995;50.856;4.404;2023-06-24T09:27:32;25.00;43.80
7900;DHT22;3995;50.856;4.404;2023-06-24T09:30:00;25.00;43.50
7900;DHT22;3995;50.856;4.404;2023-06-24T09:32:29;25.00;43.80
7900;DHT22;3995;50.856;4.404;2023-06-24T09:34:57;25.10;44.20
7900;DHT22;3995;50.856;4.404;2023-06-24T09:37:25;25.10;43.60
7900;DHT22;3995;50.856;4.404;2023-06-24T09:39:56;25.10;43.20
7900;DHT22;3995;50.856;4.404;2023-06-24T09:42:26;25.10;43.00
7900;DHT22;3995;50.856;4.404;2023-06-24T09:44:54;25.10;43.30
7900;DHT22;3995;50.856;4.404;2023-06-24T09:47:22;25.10;43.50
7900;DHT22;3995;50.856;4.404;2023-06-24T09:49:51;25.10;43.60
7900;DHT22;3995;50.856;4.404;2023-06-24T09:52:20;25.10;43.60
7900;DHT22;3995;50.856;4.404;2023-06-24T09:54:51;25.10;43.40
7900;DHT22;3995;50.856;4.404;2023-06-24T09:57:25;25.20;42.90
7900;DHT22;3995;50.856;4.404;2023-06-24T09:59:56;25.20;43.00
7900;DHT22;3995;50.856;4.404;2023-06-24T10:02:25;25.20;42.80
7900;DHT22;3995;50.856;4.404;2023-06-24T10:04:53;25.20;42.90
7900;DHT22;3995;50.856;4.404;2023-06-24T10:07:21;25.20;43.10
7900;DHT22;3995;50.856;4.404;2023-06-24T10:09:49;25.20;43.50
7900;DHT22;3995;50.856;4.404;2023-06-24T10:12:16;25.20;43.30
7900;DHT22;3995;50.856;4.404;2023-06-24T10:14:44;25.30;43.10
7900;DHT22;3995;50.856;4.404;2023-06-24T10:17:12;25.30;43.00
7900;DHT22;3995;50.856;4.404;2023-06-24T10:19:41;25.30;43.00
7900;DHT22;3995;50.856;4.404;2023-06-24T10:22:09;25.30;42.60
7900;DHT22;3995;50.856;4.404;2023-06-24T10:24:38;25.30;43.10
7900;DHT22;3995;50.856;4.404;2023-06-24T10:27:08;25.40;42.50
7900;DHT22;3995;50.856;4.404;2023-06-24T10:29:44;25.40;42.80
7900;DHT22;3995;50.856;4.404;2023-06-24T10:32:14;25.40;43.00
7900;DHT22;3995;50.856;4.404;2023-06-24T10:34:43;25.40;43.20
7900;DHT22;3995;50.856;4.404;2023-06-24T10:37:13;25.40;43.40
7900;DHT22;3995;50.856;4.404;2023-06-24T10:39:45;25.40;43.60
7900;DHT22;3995;50.856;4.404;2023-06-24T10:42:38;25.50;43.50
7900;DHT22;3995;50.856;4.404;2023-06-24T10:45:18;25.50;42.90
7900;DHT22;3995;50.856;4.404;2023-06-24T10:47:48;25.50;41.60
7900;DHT22;3995;50.856;4.404;2023-06-24T10:50:18;25.50;42.10
7900;DHT22;3995;50.856;4.404;2023-06-24T10:52:47;25.50;42.50
7900;DHT22;3995;50.856;4.404;2023-06-24T10:55:15;25.60;42.80
7900;DHT22;3995;50.856;4.404;2023-06-24T10:57:43;25.60;43.30
7900;DHT22;3995;50.856;4.404;2023-06-24T11:00:12;25.60;43.70
7900;DHT22;3995;50.856;4.404;2023-06-24T11:02:39;25.70;43.70
7900;DHT22;3995;50.856;4.404;2023-06-24T11:05:09;25.70;43.00
7900;DHT22;3995;50.856;4.404;2023-06-24T11:07:38;25.70;43.50
7900;DHT22;3995;50.856;4.404;2023-06-24T11:10:07;25.80;43.00
7900;DHT22;3995;50.856;4.404;2023-06-24T11:12:36;25.80;41.90
7900;DHT22;3995;50.856;4.404;2023-06-24T11:15:05;25.90;41.90
7900;DHT22;3995;50.856;4.404;2023-06-24T11:17:34;25.90;42.10
7900;DHT22;3995;50.856;4.404;2023-06-24T11:20:02;26.00;42.30
7900;DHT22;3995;50.856;4.404;2023-06-24T11:22:32;26.00;41.60
7900;DHT22;3995;50.856;4.404;2023-06-24T11:24:59;26.10;41.50
7900;DHT22;3995;50.856;4.404;2023-06-24T11:27:28;26.20;41.90
7900;DHT22;3995;50.856;4.404;2023-06-24T11:29:58;26.30;42.30
7900;DHT22;3995;50.856;4.404;2023-06-24T11:32:35;26.40;42.40
7900;DHT22;3995;50.856;4.404;2023-06-24T11:35:04;26.50;42.50
7900;DHT22;3995;50.856;4.404;2023-06-24T11:37:33;26.60;42.00
7900;DHT22;3995;50.856;4.404;2023-06-24T11:40:02;26.70;41.90
7900;DHT22;3995;50.856;4.404;2023-06-24T11:42:30;26.80;41.60
7900;DHT22;3995;50.856;4.404;2023-06-24T11:45:00;27.00;41.50
7900;DHT22;3995;50.856;4.404;2023-06-24T11:47:31;27.10;40.70
7900;DHT22;3995;50.856;4.404;2023-06-24T11:49:59;27.20;40.40
7900;DHT22;3995;50.856;4.404;2023-06-24T11:52:38;27.40;40.40
7900;DHT22;3995;50.856;4.404;2023-06-24T11:55:12;27.60;40.70
7900;DHT22;3995;50.856;4.404;2023-06-24T11:57:50;27.70;39.80
7900;DHT22;3995;50.856;4.404;2023-06-24T12:00:20;28.00;40.30
7900;DHT22;3995;50.856;4.404;2023-06-24T12:02:50;28.20;39.50
7900;DHT22;3995;50.856;4.404;2023-06-24T12:05:25;28.40;39.70
7900;DHT22;3995;50.856;4.404;2023-06-24T12:08:00;28.80;38.50
7900;DHT22;3995;50.856;4.404;2023-06-24T12:10:29;29.20;37.60
7900;DHT22;3995;50.856;4.404;2023-06-24T12:12:59;29.60;37.20
7900;DHT22;3995;50.856;4.404;2023-06-24T12:15:27;29.90;37.40
7900;DHT22;3995;50.856;4.404;2023-06-24T12:17:55;30.20;37.10
7900;DHT22;3995;50.856;4.404;2023-06-24T12:20:24;30.50;36.90
7900;DHT22;3995;50.856;4.404;2023-06-24T12:22:51;30.70;36.40
7900;DHT22;3995;50.856;4.404;2023-06-24T12:25:20;31.00;36.80
7900;DHT22;3995;50.856;4.404;2023-06-24T12:27:48;31.20;36.90
7900;DHT22;3995;50.856;4.404;2023-06-24T12:30:15;31.50;35.10
7900;DHT22;3995;50.856;4.404;2023-06-24T12:32:43;31.80;34.50
7900;DHT22;3995;50.856;4.404;2023-06-24T12:35:10;32.10;35.30
7900;DHT22;3995;50.856;4.404;2023-06-24T12:37:38;32.40;35.30
7900;DHT22;3995;50.856;4.404;2023-06-24T12:40:07;32.60;34.20
7900;DHT22;3995;50.856;4.404;2023-06-24T12:42:36;32.80;33.90
7900;DHT22;3995;50.856;4.404;2023-06-24T12:45:05;33.00;33.70
7900;DHT22;3995;50.856;4.404;2023-06-24T12:47:32;33.20;33.20
7900;DHT22;3995;50.856;4.404;2023-06-24T12:50:00;33.30;33.50
7900;DHT22;3995;50.856;4.404;2023-06-24T12:52:32;33.40;33.30
7900;DHT22;3995;50.856;4.404;2023-06-24T12:54:59;33.60;33.00
7900;DHT22;3995;50.856;4.404;2023-06-24T12:57:29;33.60;32.80
7900;DHT22;3995;50.856;4.404;2023-06-24T12:59:58;33.60;32.40
7900;DHT22;3995;50.856;4.404;2023-06-24T13:02:26;33.60;32.30
7900;DHT22;3995;50.856;4.404;2023-06-24T13:04:53;33.60;32.80
7900;DHT22;3995;50.856;4.404;2023-06-24T13:07:21;33.60;32.80
7900;DHT22;3995;50.856;4.404;2023-06-24T13:09:48;33.60;32.30
7900;DHT22;3995;50.856;4.404;2023-06-24T13:12:16;33.50;32.00
7900;DHT22;3995;50.856;4.404;2023-06-24T13:14:43;33.50;32.30
7900;DHT22;3995;50.856;4.404;2023-06-24T13:17:12;33.40;32.50
7900;DHT22;3995;50.856;4.404;2023-06-24T13:19:40;33.40;32.30
7900;DHT22;3995;50.856;4.404;2023-06-24T13:22:07;33.40;32.30
7900;DHT22;3995;50.856;4.404;2023-06-24T13:24:35;33.40;32.10
7900;DHT22;3995;50.856;4.404;2023-06-24T13:27:03;33.40;32.50
7900;DHT22;3995;50.856;4.404;2023-06-24T13:29:30;33.40;32.50
7900;DHT22;3995;50.856;4.404;2023-06-24T13:31:58;33.40;33.30
7900;DHT22;3995;50.856;4.404;2023-06-24T13:34:27;33.40;32.10
7900;DHT22;3995;50.856;4.404;2023-06-24T13:36:58;33.40;32.30
7900;DHT22;3995;50.856;4.404;2023-06-24T13:39:25;33.40;31.90
7900;DHT22;3995;50.856;4.404;2023-06-24T13:41:53;33.60;32.90
7900;DHT22;3995;50.856;4.404;2023-06-24T13:44:20;33.60;32.80
7900;DHT22;3995;50.856;4.404;2023-06-24T13:46:48;33.60;32.80
7900;DHT22;3995;50.856;4.404;2023-06-24T13:49:18;33.60;32.60
7900;DHT22;3995;50.856;4.404;2023-06-24T13:51:48;33.60;32.70
7900;DHT22;3995;50.856;4.404;2023-06-24T13:54:16;33.60;32.60
7900;DHT22;3995;50.856;4.404;2023-06-24T13:56:45;33.50;33.30
7900;DHT22;3995;50.856;4.404;2023-06-24T13:59:12;33.50;33.30
7900;DHT22;3995;50.856;4.404;2023-06-24T14:01:40;33.40;32.80
7900;DHT22;3995;50.856;4.404;2023-06-24T14:04:07;33.40;32.10
7900;DHT22;3995;50.856;4.404;2023-06-24T14:06:37;33.40;32.10
7900;DHT22;3995;50.856;4.404;2023-06-24T14:09:07;33.30;31.90
7900;DHT22;3995;50.856;4.404;2023-06-24T14:11:35;33.30;32.10
7900;DHT22;3995;50.856;4.404;2023-06-24T14:14:03;33.20;32.50
7900;DHT22;3995;50.856;4.404;2023-06-24T14:16:31;33.10;32.20
7900;DHT22;3995;50.856;4.404;2023-06-24T14:18:58;32.90;32.10
7900;DHT22;3995;50.856;4.404;2023-06-24T14:21:26;32.90;32.40
7900;DHT22;3995;50.856;4.404;2023-06-24T14:23:54;32.80;32.80
7900;DHT22;3995;50.856;4.404;2023-06-24T14:26:24;32.70;33.40
7900;DHT22;3995;50.856;4.404;2023-06-24T14:28:51;32.80;33.00
7900;DHT22;3995;50.856;4.404;2023-06-24T14:31:19;32.90;33.20
7900;DHT22;3995;50.856;4.404;2023-06-24T14:33:47;32.80;33.40
7900;DHT22;3995;50.856;4.404;2023-06-24T14:36:14;32.80;33.70
7900;DHT22;3995;50.856;4.404;2023-06-24T14:38:42;32.80;33.30
7900;DHT22;3995;50.856;4.404;2023-06-24T14:41:10;32.80;33.20
7900;DHT22;3995;50.856;4.404;2023-06-24T14:43:40;32.80;33.30
7900;DHT22;3995;50.856;4.404;2023-06-24T14:46:08;32.90;33.10
7900;DHT22;3995;50.856;4.404;2023-06-24T14:48:36;32.90;33.80
7900;DHT22;3995;50.856;4.404;2023-06-24T14:51:04;32.90;33.90
7900;DHT22;3995;50.856;4.404;2023-06-24T14:53:32;32.90;33.20
7900;DHT22;3995;50.856;4.404;2023-06-24T14:56:00;32.90;33.50
7900;DHT22;3995;50.856;4.404;2023-06-24T14:58:27;32.90;33.80
7900;DHT22;3995;50.856;4.404;2023-06-24T15:00:57;32.90;33.50
7900;DHT22;3995;50.856;4.404;2023-06-24T15:03:24;32.90;33.60
7900;DHT22;3995;50.856;4.404;2023-06-24T15:05:52;32.90;33.60
7900;DHT22;3995;50.856;4.404;2023-06-24T15:08:20;32.90;33.30
7900;DHT22;3995;50.856;4.404;2023-06-24T15:10:47;32.90;32.50
7900;DHT22;3995;50.856;4.404;2023-06-24T15:13:15;32.90;32.50
7900;DHT22;3995;50.856;4.404;2023-06-24T15:15:43;32.90;32.80
7900;DHT22;3995;50.856;4.404;2023-06-24T15:18:13;32.90;32.60
7900;DHT22;3995;50.856;4.404;2023-06-24T15:20:41;32.90;32.20
7900;DHT22;3995;50.856;4.404;2023-06-24T15:23:09;32.90;32.20
7900;DHT22;3995;50.856;4.404;2023-06-24T15:25:37;33.00;31.90
7900;DHT22;3995;50.856;4.404;2023-06-24T15:28:04;33.00;32.10
7900;DHT22;3995;50.856;4.404;2023-06-24T15:30:32;33.00;32.50
7900;DHT22;3995;50.856;4.404;2023-06-24T15:32:59;33.10;32.50
7900;DHT22;3995;50.856;4.404;2023-06-24T15:35:28;33.10;32.50
7900;DHT22;3995;50.856;4.404;2023-06-24T15:37:56;33.10;32.50
7900;DHT22;3995;50.856;4.404;2023-06-24T15:40:24;33.10;32.60
7900;DHT22;3995;50.856;4.404;2023-06-24T15:42:52;33.10;32.60
7900;DHT22;3995;50.856;4.404;2023-06-24T15:45:20;33.00;32.70
7900;DHT22;3995;50.856;4.404;2023-06-24T15:47:48;33.10;32.70
7900;DHT22;3995;50.856;4.404;2023-06-24T15:50:15;33.00;32.50
7900;DHT22;3995;50.856;4.404;2023-06-24T15:52:44;33.00;33.10
7900;DHT22;3995;50.856;4.404;2023-06-24T15:55:11;33.00;32.70
7900;DHT22;3995;50.856;4.404;2023-06-24T15:57:39;33.00;32.80
7900;DHT22;3995;50.856;4.404;2023-06-24T16:00:07;33.00;33.00
7900;DHT22;3995;50.856;4.404;2023-06-24T16:02:35;32.90;32.70
7900;DHT22;3995;50.856;4.404;2023-06-24T16:05:02;32.90;32.90
7900;DHT22;3995;50.856;4.404;2023-06-24T16:07:31;33.00;33.20
7900;DHT22;3995;50.856;4.404;2023-06-24T16:10:00;32.90;32.60
7900;DHT22;3995;50.856;4.404;2023-06-24T16:12:27;32.90;32.70
7900;DHT22;3995;50.856;4.404;2023-06-24T16:14:55;32.80;32.80